Hlavní strana
METAR-TAF:

METAR-TAF

Letiště :

Thule, Grónsko

zeměpisná šířka: 76-32N, zeměpisná délka: 068-42W, výška: 77 m

Aktuální stav počasí

Zpráva byla vytvořena před 51 minutami, v 00:56 UTC
Východojihovýchodní vítr 7 kt
Teplota -8°C
Vlhkost vzduchu 73%
Tlak 999 hPa
Viditelnost 10 km a více
Jasno

METAR: BGTL 240056Z AUTO 11007KT 9999 CLR M08/M12 A2951 RMK AO2 SLP980 T10851123 TSNO $

Čas: 22:47 (01:47 UTC)

Předpověď počasí

Zpráva byla vytvořena před 4 hodinami a 47 minutami, v 21:00 UTC
Předpověď platná od 22 v 21 UTC do 23 v 23 UTC
vítr z různých směrů 6 kt
Viditelnost: 2401 m
Skoro jasno ve výšce 4000 ft

TAF: BGTL 222100Z 2221/2323 VRB06KT 9999 FEW040 QNH2963INS TX00/2317Z TNM08/2308Z LAST NO AMDS AFT 2221 NEXT 2401

Stav a předpovědi počasí z více než 4 000 letišť (zprávy METAR a TAF).

Červené a žluté tečky na mapě představují dostupné meteorologické stanice.

Když kurzor umístíte na tečku, zobrazí se název stanice.

Pak kliknutím zobrazíte stav a předpověď počasí.

Chcete-li změnit mapu, kliknutím na zelené tlačítko se znaménkem +mapu přiblížíte, kliknutím na zelené tlačítko se znaménkem – mapu oddálíte a kliknutím na zelené šipky přejdete na sousední mapy.


METAR-TAF: